sensor_id;sensor_type;location;lat;lon;timestamp;pressure;altitude;pressure_sealevel;temperature;humidity
6198;BME280;3132;42.622;23.328;2022-07-25T00:01:25;92954.59;;;22.89;72.95
6198;BME280;3132;42.622;23.328;2022-07-25T00:03:51;92951.59;;;22.75;73.27
6198;BME280;3132;42.622;23.328;2022-07-25T00:06:16;92955.44;;;22.77;73.89
6198;BME280;3132;42.622;23.328;2022-07-25T00:08:41;92957.84;;;22.82;73.96
6198;BME280;3132;42.622;23.328;2022-07-25T00:11:07;92952.53;;;22.82;73.60
6198;BME280;3132;42.622;23.328;2022-07-25T00:13:32;92948.09;;;22.71;73.78
6198;BME280;3132;42.622;23.328;2022-07-25T00:15:58;92938.28;;;22.75;73.50
6198;BME280;3132;42.622;23.328;2022-07-25T00:18:23;92951.00;;;22.81;73.41
6198;BME280;3132;42.622;23.328;2022-07-25T00:20:48;92960.88;;;22.81;72.91
6198;BME280;3132;42.622;23.328;2022-07-25T00:23:14;92956.81;;;22.87;71.72
6198;BME280;3132;42.622;23.328;2022-07-25T00:25:39;92949.69;;;22.91;72.20
6198;BME280;3132;42.622;23.328;2022-07-25T00:28:05;92949.69;;;22.91;72.17
6198;BME280;3132;42.622;23.328;2022-07-25T00:30:30;92947.22;;;22.82;71.80
6198;BME280;3132;42.622;23.328;2022-07-25T00:32:56;92945.59;;;22.78;70.40
6198;BME280;3132;42.622;23.328;2022-07-25T00:35:21;92935.47;;;22.83;71.24
6198;BME280;3132;42.622;23.328;2022-07-25T00:37:46;92936.22;;;22.84;71.20
6198;BME280;3132;42.622;23.328;2022-07-25T00:40:12;92928.13;;;22.80;71.79
6198;BME280;3132;42.622;23.328;2022-07-25T00:42:37;92927.91;;;22.70;72.82
6198;BME280;3132;42.622;23.328;2022-07-25T00:45:03;92932.19;;;22.74;72.00
6198;BME280;3132;42.622;23.328;2022-07-25T00:47:29;92929.25;;;22.48;71.89
6198;BME280;3132;42.622;23.328;2022-07-25T00:49:54;92926.72;;;22.52;72.21
6198;BME280;3132;42.622;23.328;2022-07-25T00:52:20;92938.03;;;22.64;72.42
6198;BME280;3132;42.622;23.328;2022-07-25T00:54:45;92931.59;;;22.65;72.23
6198;BME280;3132;42.622;23.328;2022-07-25T00:57:11;92932.28;;;22.62;72.82
6198;BME280;3132;42.622;23.328;2022-07-25T00:59:36;92922.81;;;22.49;74.00
6198;BME280;3132;42.622;23.328;2022-07-25T01:02:02;92927.97;;;22.42;75.38
6198;BME280;3132;42.622;23.328;2022-07-25T01:04:27;92926.38;;;22.53;74.81
6198;BME280;3132;42.622;23.328;2022-07-25T01:06:53;92933.09;;;22.35;75.65
6198;BME280;3132;42.622;23.328;2022-07-25T01:09:19;92932.25;;;22.31;75.30
6198;BME280;3132;42.622;23.328;2022-07-25T01:11:45;92924.34;;;22.19;76.30
6198;BME280;3132;42.622;23.328;2022-07-25T01:14:10;92943.47;;;22.24;75.93
6198;BME280;3132;42.622;23.328;2022-07-25T01:16:36;92920.56;;;22.20;75.86
6198;BME280;3132;42.622;23.328;2022-07-25T01:19:01;92938.59;;;22.42;75.12
6198;BME280;3132;42.622;23.328;2022-07-25T01:21:27;92938.25;;;22.44;74.36
6198;BME280;3132;42.622;23.328;2022-07-25T01:23:52;92939.97;;;22.36;75.04
6198;BME280;3132;42.622;23.328;2022-07-25T01:26:17;92936.44;;;22.48;74.90
6198;BME280;3132;42.622;23.328;2022-07-25T01:28:43;92943.50;;;22.40;75.03
6198;BME280;3132;42.622;23.328;2022-07-25T01:31:08;92934.47;;;22.29;75.41
6198;BME280;3132;42.622;23.328;2022-07-25T01:33:34;92943.94;;;22.42;74.88
6198;BME280;3132;42.622;23.328;2022-07-25T01:35:59;92933.78;;;22.32;75.21
6198;BME280;3132;42.622;23.328;2022-07-25T01:38:25;92928.03;;;22.14;75.71
6198;BME280;3132;42.622;23.328;2022-07-25T01:40:50;92929.16;;;22.29;75.61
6198;BME280;3132;42.622;23.328;2022-07-25T01:43:15;92931.56;;;22.34;75.03
6198;BME280;3132;42.622;23.328;2022-07-25T01:45:41;92918.44;;;22.26;75.91
6198;BME280;3132;42.622;23.328;2022-07-25T01:48:06;92921.16;;;22.29;75.31
6198;BME280;3132;42.622;23.328;2022-07-25T01:50:32;92929.31;;;22.20;75.62
6198;BME280;3132;42.622;23.328;2022-07-25T01:52:58;92930.53;;;22.23;75.92
6198;BME280;3132;42.622;23.328;2022-07-25T01:55:23;92934.91;;;22.31;75.78
6198;BME280;3132;42.622;23.328;2022-07-25T01:57:48;92941.50;;;22.37;75.28
6198;BME280;3132;42.622;23.328;2022-07-25T02:00:14;92933.03;;;22.16;75.85
6198;BME280;3132;42.622;23.328;2022-07-25T02:02:41;92941.16;;;22.23;75.25
6198;BME280;3132;42.622;23.328;2022-07-25T02:05:08;92928.19;;;22.21;73.77
6198;BME280;3132;42.622;23.328;2022-07-25T02:07:34;92933.88;;;22.20;74.58
6198;BME280;3132;42.622;23.328;2022-07-25T02:10:00;92928.53;;;22.20;73.00
6198;BME280;3132;42.622;23.328;2022-07-25T02:12:26;92930.59;;;22.11;70.46
6198;BME280;3132;42.622;23.328;2022-07-25T02:14:51;92940.22;;;22.31;67.88
6198;BME280;3132;42.622;23.328;2022-07-25T02:17:17;92935.44;;;22.37;68.61
6198;BME280;3132;42.622;23.328;2022-07-25T02:19:42;92932.84;;;22.40;68.21
6198;BME280;3132;42.622;23.328;2022-07-25T02:22:08;92939.53;;;22.34;70.18
6198;BME280;3132;42.622;23.328;2022-07-25T02:24:34;92943.41;;;22.21;68.96
6198;BME280;3132;42.622;23.328;2022-07-25T02:27:01;92939.09;;;22.16;70.36
6198;BME280;3132;42.622;23.328;2022-07-25T02:29:27;92942.81;;;22.43;69.61
6198;BME280;3132;42.622;23.328;2022-07-25T02:31:52;92943.56;;;22.12;71.15
6198;BME280;3132;42.622;23.328;2022-07-25T02:34:18;92946.69;;;22.02;71.92
6198;BME280;3132;42.622;23.328;2022-07-25T02:36:43;92944.09;;;21.90;72.05
6198;BME280;3132;42.622;23.328;2022-07-25T02:39:10;92944.63;;;21.80;72.74
6198;BME280;3132;42.622;23.328;2022-07-25T02:41:35;92936.53;;;21.77;73.63
6198;BME280;3132;42.622;23.328;2022-07-25T02:44:00;92939.28;;;21.68;74.24
6198;BME280;3132;42.622;23.328;2022-07-25T02:46:26;92936.97;;;21.67;74.58
6198;BME280;3132;42.622;23.328;2022-07-25T02:48:51;92935.03;;;21.52;75.23
6198;BME280;3132;42.622;23.328;2022-07-25T02:51:16;92941.16;;;21.52;75.80
6198;BME280;3132;42.622;23.328;2022-07-25T02:53:43;92938.34;;;21.61;75.06
6198;BME280;3132;42.622;23.328;2022-07-25T02:56:08;92938.56;;;21.56;75.37
6198;BME280;3132;42.622;23.328;2022-07-25T02:58:33;92933.75;;;21.46;75.77
6198;BME280;3132;42.622;23.328;2022-07-25T03:00:59;92938.09;;;21.38;74.76
6198;BME280;3132;42.622;23.328;2022-07-25T03:03:24;92939.91;;;21.50;74.58
6198;BME280;3132;42.622;23.328;2022-07-25T03:05:50;92929.44;;;21.41;74.33
6198;BME280;3132;42.622;23.328;2022-07-25T03:08:15;92935.78;;;21.37;73.83
6198;BME280;3132;42.622;23.328;2022-07-25T03:10:41;92943.47;;;21.42;73.04
6198;BME280;3132;42.622;23.328;2022-07-25T03:13:06;92935.78;;;21.37;73.94
6198;BME280;3132;42.622;23.328;2022-07-25T03:15:31;92938.66;;;21.32;74.27
6198;BME280;3132;42.622;23.328;2022-07-25T03:17:57;92941.09;;;21.37;74.55
6198;BME280;3132;42.622;23.328;2022-07-25T03:20:22;92937.53;;;21.33;74.16
6198;BME280;3132;42.622;23.328;2022-07-25T03:22:48;92938.53;;;21.28;74.62
6198;BME280;3132;42.622;23.328;2022-07-25T03:25:13;92923.16;;;21.22;73.18
6198;BME280;3132;42.622;23.328;2022-07-25T03:27:39;92936.34;;;21.30;73.54
6198;BME280;3132;42.622;23.328;2022-07-25T03:30:05;92939.78;;;21.31;73.88
6198;BME280;3132;42.622;23.328;2022-07-25T03:32:30;92944.97;;;21.27;73.45
6198;BME280;3132;42.622;23.328;2022-07-25T03:34:56;92946.06;;;21.38;72.72
6198;BME280;3132;42.622;23.328;2022-07-25T03:37:21;92943.41;;;21.38;71.98
6198;BME280;3132;42.622;23.328;2022-07-25T03:39:46;92942.56;;;21.50;71.01
6198;BME280;3132;42.622;23.328;2022-07-25T03:42:12;92939.16;;;21.49;70.73
6198;BME280;3132;42.622;23.328;2022-07-25T03:44:37;92917.81;;;21.46;71.04
6198;BME280;3132;42.622;23.328;2022-07-25T03:47:04;92938.34;;;21.61;71.34
6198;BME280;3132;42.622;23.328;2022-07-25T03:49:30;92943.19;;;21.59;71.57
6198;BME280;3132;42.622;23.328;2022-07-25T03:51:55;92941.88;;;21.65;70.48
6198;BME280;3132;42.622;23.328;2022-07-25T03:54:20;92946.06;;;21.66;69.19
6198;BME280;3132;42.622;23.328;2022-07-25T03:56:48;92949.31;;;21.87;68.59
6198;BME280;3132;42.622;23.328;2022-07-25T03:59:16;92950.81;;;22.00;69.05
6198;BME280;3132;42.622;23.328;2022-07-25T04:01:43;92957.81;;;22.20;66.79
6198;BME280;3132;42.622;23.328;2022-07-25T04:04:09;92944.22;;;21.94;68.89
6198;BME280;3132;42.622;23.328;2022-07-25T04:06:35;92945.59;;;22.03;68.55
6198;BME280;3132;42.622;23.328;2022-07-25T04:09:01;92960.13;;;22.21;69.11
6198;BME280;3132;42.622;23.328;2022-07-25T04:11:27;92958.44;;;22.45;68.03
6198;BME280;3132;42.622;23.328;2022-07-25T04:13:53;92961.41;;;22.71;66.97
6198;BME280;3132;42.622;23.328;2022-07-25T04:16:19;92954.59;;;22.73;67.23
6198;BME280;3132;42.622;23.328;2022-07-25T04:18:44;92949.75;;;22.94;66.57
6198;BME280;3132;42.622;23.328;2022-07-25T04:21:09;92941.44;;;22.96;65.67
6198;BME280;3132;42.622;23.328;2022-07-25T04:23:35;92950.69;;;23.17;66.24
6198;BME280;3132;42.622;23.328;2022-07-25T04:26:00;92956.28;;;23.28;64.69
6198;BME280;3132;42.622;23.328;2022-07-25T04:28:26;92951.63;;;23.25;65.77
6198;BME280;3132;42.622;23.328;2022-07-25T04:30:53;92949.28;;;23.39;65.01
6198;BME280;3132;42.622;23.328;2022-07-25T04:33:19;92951.25;;;23.42;63.81
6198;BME280;3132;42.622;23.328;2022-07-25T04:35:45;92949.75;;;23.44;61.78
6198;BME280;3132;42.622;23.328;2022-07-25T04:38:11;92947.88;;;23.83;61.47
6198;BME280;3132;42.622;23.328;2022-07-25T04:40:37;92947.13;;;23.83;61.83
6198;BME280;3132;42.622;23.328;2022-07-25T04:43:03;92906.78;;;23.46;60.26
6198;BME280;3132;42.622;23.328;2022-07-25T04:45:29;92946.72;;;24.00;59.63
6198;BME280;3132;42.622;23.328;2022-07-25T04:47:55;92940.22;;;24.20;59.47
6198;BME280;3132;42.622;23.328;2022-07-25T04:50:20;92949.03;;;24.43;59.65
6198;BME280;3132;42.622;23.328;2022-07-25T04:52:46;92947.94;;;24.66;58.07
6198;BME280;3132;42.622;23.328;2022-07-25T04:55:11;92950.03;;;24.57;57.74
6198;BME280;3132;42.622;23.328;2022-07-25T04:57:37;92940.13;;;24.58;57.81
6198;BME280;3132;42.622;23.328;2022-07-25T05:00:07;92954.88;;;24.71;56.74
6198;BME280;3132;42.622;23.328;2022-07-25T05:02:33;92955.84;;;24.63;56.33
6198;BME280;3132;42.622;23.328;2022-07-25T05:04:59;92952.97;;;24.30;56.04
6198;BME280;3132;42.622;23.328;2022-07-25T05:07:25;92952.75;;;24.61;56.21
6198;BME280;3132;42.622;23.328;2022-07-25T05:09:50;92917.41;;;24.67;55.90
6198;BME280;3132;42.622;23.328;2022-07-25T05:12:16;92932.41;;;25.24;54.37
6198;BME280;3132;42.622;23.328;2022-07-25T05:14:41;92955.91;;;25.38;53.72
6198;BME280;3132;42.622;23.328;2022-07-25T05:17:06;92960.16;;;25.68;53.28
6198;BME280;3132;42.622;23.328;2022-07-25T05:19:32;92951.94;;;25.54;53.02
6198;BME280;3132;42.622;23.328;2022-07-25T05:21:57;92954.03;;;25.68;53.23
6198;BME280;3132;42.622;23.328;2022-07-25T05:24:22;92962.97;;;25.53;53.07
6198;BME280;3132;42.622;23.328;2022-07-25T05:26:48;92973.91;;;25.70;53.25
6198;BME280;3132;42.622;23.328;2022-07-25T05:29:14;92965.88;;;25.41;53.36
6198;BME280;3132;42.622;23.328;2022-07-25T05:31:41;92982.22;;;26.21;51.94
6198;BME280;3132;42.622;23.328;2022-07-25T05:34:07;92978.19;;;26.37;52.04
6198;BME280;3132;42.622;23.328;2022-07-25T05:36:32;92985.34;;;26.26;50.25
6198;BME280;3132;42.622;23.328;2022-07-25T05:38:58;92977.09;;;26.09;51.53
6198;BME280;3132;42.622;23.328;2022-07-25T05:41:24;92975.56;;;25.78;51.76
6198;BME280;3132;42.622;23.328;2022-07-25T05:43:49;92966.13;;;26.17;51.08
6198;BME280;3132;42.622;23.328;2022-07-25T05:46:15;92962.97;;;26.08;50.55
6198;BME280;3132;42.622;23.328;2022-07-25T05:48:41;92966.56;;;25.93;51.08
6198;BME280;3132;42.622;23.328;2022-07-25T05:51:07;92962.47;;;26.72;49.86
6198;BME280;3132;42.622;23.328;2022-07-25T05:53:32;92969.28;;;28.50;45.17
6198;BME280;3132;42.622;23.328;2022-07-25T05:55:58;92966.19;;;29.89;41.54
6198;BME280;3132;42.622;23.328;2022-07-25T05:58:24;92970.78;;;32.78;35.27
6198;BME280;3132;42.622;23.328;2022-07-25T06:00:50;92971.59;;;33.74;33.26
6198;BME280;3132;42.622;23.328;2022-07-25T06:03:16;92965.69;;;33.33;33.97
6198;BME280;3132;42.622;23.328;2022-07-25T06:05:42;92978.94;;;35.58;29.76
6198;BME280;3132;42.622;23.328;2022-07-25T06:08:08;92977.16;;;35.84;30.17
6198;BME280;3132;42.622;23.328;2022-07-25T06:10:33;92977.63;;;35.50;30.19
6198;BME280;3132;42.622;23.328;2022-07-25T06:12:59;92982.03;;;36.05;28.91
6198;BME280;3132;42.622;23.328;2022-07-25T06:15:24;92982.06;;;37.13;28.07
6198;BME280;3132;42.622;23.328;2022-07-25T06:17:50;92980.91;;;37.26;27.05
6198;BME280;3132;42.622;23.328;2022-07-25T06:20:15;92972.22;;;36.65;28.18
6198;BME280;3132;42.622;23.328;2022-07-25T06:22:40;92984.44;;;36.32;28.18
6198;BME280;3132;42.622;23.328;2022-07-25T06:25:06;92982.53;;;37.24;27.53
6198;BME280;3132;42.622;23.328;2022-07-25T06:27:32;92990.47;;;38.36;25.86
6198;BME280;3132;42.622;23.328;2022-07-25T06:29:57;92988.09;;;38.91;25.28
6198;BME280;3132;42.622;23.328;2022-07-25T06:32:23;92982.75;;;35.13;29.51
6198;BME280;3132;42.622;23.328;2022-07-25T06:34:48;92991.88;;;36.97;27.29
6198;BME280;3132;42.622;23.328;2022-07-25T06:37:14;92993.69;;;37.88;26.77
6198;BME280;3132;42.622;23.328;2022-07-25T06:39:40;92989.38;;;37.53;25.98
6198;BME280;3132;42.622;23.328;2022-07-25T06:42:05;92984.03;;;36.99;27.69
6198;BME280;3132;42.622;23.328;2022-07-25T06:44:31;92985.06;;;35.63;29.05
6198;BME280;3132;42.622;23.328;2022-07-25T06:46:59;92973.13;;;31.38;35.31
6198;BME280;3132;42.622;23.328;2022-07-25T06:49:24;92965.19;;;30.55;38.36
6198;BME280;3132;42.622;23.328;2022-07-25T06:51:49;92956.31;;;29.29;41.19
6198;BME280;3132;42.622;23.328;2022-07-25T06:54:15;92950.75;;;28.13;43.67
6198;BME280;3132;42.622;23.328;2022-07-25T06:56:42;92951.22;;;28.40;43.89
6198;BME280;3132;42.622;23.328;2022-07-25T06:59:08;92951.94;;;28.23;43.67
6198;BME280;3132;42.622;23.328;2022-07-25T07:01:34;92948.63;;;27.68;45.59
6198;BME280;3132;42.622;23.328;2022-07-25T07:03:59;92947.13;;;27.78;45.10
6198;BME280;3132;42.622;23.328;2022-07-25T07:06:24;92948.50;;;27.47;45.50
6198;BME280;3132;42.622;23.328;2022-07-25T07:08:50;92946.22;;;26.95;46.03
6198;BME280;3132;42.622;23.328;2022-07-25T07:11:15;92943.28;;;27.14;46.13
6198;BME280;3132;42.622;23.328;2022-07-25T07:13:41;92935.22;;;27.11;46.40
6198;BME280;3132;42.622;23.328;2022-07-25T07:16:06;92946.28;;;27.06;46.55
6198;BME280;3132;42.622;23.328;2022-07-25T07:18:32;92942.91;;;27.16;45.16
6198;BME280;3132;42.622;23.328;2022-07-25T07:20:57;92945.72;;;27.30;45.18
6198;BME280;3132;42.622;23.328;2022-07-25T07:23:23;92943.81;;;26.83;46.18
6198;BME280;3132;42.622;23.328;2022-07-25T07:25:48;92945.84;;;27.51;44.74
6198;BME280;3132;42.622;23.328;2022-07-25T07:28:15;92940.28;;;27.23;45.82
6198;BME280;3132;42.622;23.328;2022-07-25T07:30:41;92945.59;;;27.16;44.83
6198;BME280;3132;42.622;23.328;2022-07-25T07:33:07;92942.06;;;27.59;44.03
6198;BME280;3132;42.622;23.328;2022-07-25T07:35:32;92927.31;;;27.32;46.04
6198;BME280;3132;42.622;23.328;2022-07-25T07:37:57;92932.50;;;27.65;45.24
6198;BME280;3132;42.622;23.328;2022-07-25T07:40:23;92945.09;;;27.54;43.65
6198;BME280;3132;42.622;23.328;2022-07-25T07:42:51;92942.56;;;27.85;44.15
6198;BME280;3132;42.622;23.328;2022-07-25T07:45:19;92944.38;;;27.64;43.88
6198;BME280;3132;42.622;23.328;2022-07-25T07:47:45;92946.66;;;27.62;42.71
6198;BME280;3132;42.622;23.328;2022-07-25T07:50:13;92922.84;;;26.92;44.40
6198;BME280;3132;42.622;23.328;2022-07-25T07:52:40;92941.56;;;27.43;43.27
6198;BME280;3132;42.622;23.328;2022-07-25T07:55:06;92936.41;;;27.17;43.41
6198;BME280;3132;42.622;23.328;2022-07-25T07:57:50;92924.09;;;27.09;42.91
6198;BME280;3132;42.622;23.328;2022-07-25T08:00:16;92942.78;;;27.52;42.71
6198;BME280;3132;42.622;23.328;2022-07-25T08:02:46;92942.28;;;27.33;43.66
6198;BME280;3132;42.622;23.328;2022-07-25T08:05:18;92937.72;;;27.37;43.91
6198;BME280;3132;42.622;23.328;2022-07-25T08:07:44;92939.69;;;27.47;42.82
6198;BME280;3132;42.622;23.328;2022-07-25T08:10:09;92928.91;;;27.36;43.46
6198;BME280;3132;42.622;23.328;2022-07-25T08:12:39;92935.13;;;27.54;42.50
6198;BME280;3132;42.622;23.328;2022-07-25T08:15:05;92911.78;;;27.62;42.09
6198;BME280;3132;42.622;23.328;2022-07-25T08:17:31;92930.63;;;27.15;42.48
6198;BME280;3132;42.622;23.328;2022-07-25T08:19:56;92935.44;;;27.39;43.33
6198;BME280;3132;42.622;23.328;2022-07-25T08:22:21;92942.75;;;27.45;42.90
6198;BME280;3132;42.622;23.328;2022-07-25T08:24:47;92941.31;;;27.62;41.89
6198;BME280;3132;42.622;23.328;2022-07-25T08:27:12;92916.47;;;27.82;39.82
6198;BME280;3132;42.622;23.328;2022-07-25T08:29:37;92938.78;;;27.90;41.08
6198;BME280;3132;42.622;23.328;2022-07-25T08:32:03;92941.47;;;27.90;41.48
6198;BME280;3132;42.622;23.328;2022-07-25T08:34:29;92943.34;;;27.86;40.24
6198;BME280;3132;42.622;23.328;2022-07-25T08:36:54;92940.09;;;27.52;39.16
6198;BME280;3132;42.622;23.328;2022-07-25T08:39:19;92932.81;;;27.53;40.44
6198;BME280;3132;42.622;23.328;2022-07-25T08:41:45;92921.31;;;27.52;40.17
6198;BME280;3132;42.622;23.328;2022-07-25T08:44:12;92942.22;;;27.94;40.28
6198;BME280;3132;42.622;23.328;2022-07-25T08:46:40;92941.50;;;28.04;39.78
6198;BME280;3132;42.622;23.328;2022-07-25T08:49:06;92934.63;;;28.03;39.94
6198;BME280;3132;42.622;23.328;2022-07-25T08:51:32;92936.19;;;28.11;38.80
6198;BME280;3132;42.622;23.328;2022-07-25T08:53:58;92936.53;;;28.06;38.71
6198;BME280;3132;42.622;23.328;2022-07-25T08:56:24;92922.03;;;28.28;38.32
6198;BME280;3132;42.622;23.328;2022-07-25T08:58:50;92933.84;;;28.09;39.96
6198;BME280;3132;42.622;23.328;2022-07-25T09:01:16;92932.59;;;27.86;40.53
6198;BME280;3132;42.622;23.328;2022-07-25T09:03:42;92932.31;;;28.08;40.38
6198;BME280;3132;42.622;23.328;2022-07-25T09:06:17;92931.56;;;28.15;39.60
6198;BME280;3132;42.622;23.328;2022-07-25T09:08:57;92930.50;;;28.41;39.45
6198;BME280;3132;42.622;23.328;2022-07-25T09:13:57;92927.09;;;28.89;39.10
6198;BME280;3132;42.622;23.328;2022-07-25T09:16:34;92931.59;;;28.25;39.01
6198;BME280;3132;42.622;23.328;2022-07-25T09:19:14;92923.41;;;27.87;39.04
6198;BME280;3132;42.622;23.328;2022-07-25T09:21:41;92924.69;;;28.14;39.15
6198;BME280;3132;42.622;23.328;2022-07-25T09:24:15;92917.09;;;28.58;38.78
6198;BME280;3132;42.622;23.328;2022-07-25T09:26:56;92911.66;;;28.23;38.55
6198;BME280;3132;42.622;23.328;2022-07-25T09:29:24;92918.88;;;27.98;39.43
6198;BME280;3132;42.622;23.328;2022-07-25T09:31:51;92918.59;;;28.38;38.27
6198;BME280;3132;42.622;23.328;2022-07-25T09:34:37;92907.03;;;28.20;38.52
6198;BME280;3132;42.622;23.328;2022-07-25T09:37:06;92915.84;;;28.10;39.66
6198;BME280;3132;42.622;23.328;2022-07-25T09:39:53;92907.00;;;28.06;40.31
6198;BME280;3132;42.622;23.328;2022-07-25T09:42:25;92917.88;;;28.48;37.90
6198;BME280;3132;42.622;23.328;2022-07-25T09:47:22;92907.88;;;29.05;38.70
6198;BME280;3132;42.622;23.328;2022-07-25T09:49:48;92901.00;;;29.11;37.32
6198;BME280;3132;42.622;23.328;2022-07-25T09:52:13;92882.16;;;29.04;37.03
6198;BME280;3132;42.622;23.328;2022-07-25T09:54:39;92918.66;;;28.73;37.57
6198;BME280;3132;42.622;23.328;2022-07-25T09:57:05;92915.91;;;28.45;38.50
6198;BME280;3132;42.622;23.328;2022-07-25T09:59:32;92907.16;;;28.90;39.13
6198;BME280;3132;42.622;23.328;2022-07-25T10:02:07;92906.38;;;28.93;37.79
6198;BME280;3132;42.622;23.328;2022-07-25T10:04:48;92905.22;;;28.73;38.12
6198;BME280;3132;42.622;23.328;2022-07-25T10:07:20;92889.38;;;29.66;35.09
6198;BME280;3132;42.622;23.328;2022-07-25T10:09:49;92898.53;;;29.80;35.43
6198;BME280;3132;42.622;23.328;2022-07-25T10:12:19;92892.19;;;29.07;37.54
6198;BME280;3132;42.622;23.328;2022-07-25T10:15:11;92889.47;;;28.79;38.35
6198;BME280;3132;42.622;23.328;2022-07-25T10:17:39;92895.56;;;28.37;38.72
6198;BME280;3132;42.622;23.328;2022-07-25T10:20:07;92903.16;;;28.00;38.33
6198;BME280;3132;42.622;23.328;2022-07-25T10:22:41;92896.25;;;27.99;38.56
6198;BME280;3132;42.622;23.328;2022-07-25T10:25:17;92890.88;;;27.99;39.38
6198;BME280;3132;42.622;23.328;2022-07-25T10:27:45;92892.72;;;27.81;39.69
6198;BME280;3132;42.622;23.328;2022-07-25T10:30:22;92878.63;;;28.19;39.58
6198;BME280;3132;42.622;23.328;2022-07-25T10:32:50;92890.84;;;27.92;39.01
6198;BME280;3132;42.622;23.328;2022-07-25T10:35:19;92881.66;;;27.96;39.63
6198;BME280;3132;42.622;23.328;2022-07-25T10:37:45;92890.97;;;28.34;38.40
6198;BME280;3132;42.622;23.328;2022-07-25T10:40:24;92882.53;;;28.46;39.12
6198;BME280;3132;42.622;23.328;2022-07-25T10:42:49;92880.97;;;28.27;38.17
6198;BME280;3132;42.622;23.328;2022-07-25T10:45:18;92873.72;;;28.49;38.19
6198;BME280;3132;42.622;23.328;2022-07-25T10:47:53;92881.41;;;28.68;36.94
6198;BME280;3132;42.622;23.328;2022-07-25T10:50:21;92877.19;;;29.16;36.41
6198;BME280;3132;42.622;23.328;2022-07-25T10:52:57;92869.47;;;29.32;37.22
6198;BME280;3132;42.622;23.328;2022-07-25T10:55:23;92866.06;;;29.07;35.10
6198;BME280;3132;42.622;23.328;2022-07-25T10:58:02;92865.13;;;29.56;35.86
6198;BME280;3132;42.622;23.328;2022-07-25T11:00:31;92868.28;;;29.40;35.33
6198;BME280;3132;42.622;23.328;2022-07-25T11:02:57;92868.25;;;29.47;36.18
6198;BME280;3132;42.622;23.328;2022-07-25T11:05:23;92861.78;;;28.36;37.83
6198;BME280;3132;42.622;23.328;2022-07-25T11:07:50;92865.63;;;28.98;36.59
6198;BME280;3132;42.622;23.328;2022-07-25T11:10:24;92862.56;;;29.21;36.75
6198;BME280;3132;42.622;23.328;2022-07-25T11:12:50;92865.66;;;29.12;35.28
6198;BME280;3132;42.622;23.328;2022-07-25T11:15:15;92861.81;;;28.92;36.19
6198;BME280;3132;42.622;23.328;2022-07-25T11:17:49;92854.88;;;29.02;36.85
6198;BME280;3132;42.622;23.328;2022-07-25T11:20:15;92861.06;;;28.88;36.35
6198;BME280;3132;42.622;23.328;2022-07-25T11:22:42;92841.84;;;28.72;36.20
6198;BME280;3132;42.622;23.328;2022-07-25T11:25:14;92846.47;;;28.54;34.90
6198;BME280;3132;42.622;23.328;2022-07-25T11:27:40;92846.81;;;28.46;35.36
6198;BME280;3132;42.622;23.328;2022-07-25T11:30:12;92838.41;;;28.44;36.90
6198;BME280;3132;42.622;23.328;2022-07-25T11:32:44;92853.75;;;28.43;37.69
6198;BME280;3132;42.622;23.328;2022-07-25T11:35:13;92841.44;;;29.16;35.98
6198;BME280;3132;42.622;23.328;2022-07-25T11:37:40;92830.16;;;29.66;34.41
6198;BME280;3132;42.622;23.328;2022-07-25T11:40:06;92841.53;;;29.95;34.19
6198;BME280;3132;42.622;23.328;2022-07-25T11:42:51;92827.75;;;29.83;33.50
6198;BME280;3132;42.622;23.328;2022-07-25T11:45:29;92821.09;;;29.15;32.46
6198;BME280;3132;42.622;23.328;2022-07-25T11:50:30;92828.69;;;29.44;32.75
6198;BME280;3132;42.622;23.328;2022-07-25T11:53:00;92825.69;;;29.00;34.32
6198;BME280;3132;42.622;23.328;2022-07-25T11:55:33;92825.69;;;29.04;33.76
6198;BME280;3132;42.622;23.328;2022-07-25T11:58:02;92820.31;;;29.00;34.79
6198;BME280;3132;42.622;23.328;2022-07-25T12:00:28;92816.16;;;28.54;34.25
6198;BME280;3132;42.622;23.328;2022-07-25T12:02:54;92823.41;;;28.46;34.72
6198;BME280;3132;42.622;23.328;2022-07-25T12:05:21;92815.34;;;28.28;35.23
6198;BME280;3132;42.622;23.328;2022-07-25T12:10:33;92800.72;;;29.00;32.97
6198;BME280;3132;42.622;23.328;2022-07-25T12:12:59;92805.69;;;29.22;32.96
6198;BME280;3132;42.622;23.328;2022-07-25T12:15:39;92798.84;;;28.90;35.03
6198;BME280;3132;42.622;23.328;2022-07-25T12:18:06;92805.72;;;28.94;35.30
6198;BME280;3132;42.622;23.328;2022-07-25T12:20:38;92796.56;;;28.60;35.39
6198;BME280;3132;42.622;23.328;2022-07-25T12:23:06;92801.19;;;28.63;34.89
6198;BME280;3132;42.622;23.328;2022-07-25T12:25:35;92800.00;;;28.33;36.44
6198;BME280;3132;42.622;23.328;2022-07-25T12:28:01;92795.38;;;28.33;36.94
6198;BME280;3132;42.622;23.328;2022-07-25T12:30:28;92795.44;;;28.54;36.25
6198;BME280;3132;42.622;23.328;2022-07-25T12:32:55;92795.72;;;29.05;35.72
6198;BME280;3132;42.622;23.328;2022-07-25T12:35:21;92792.94;;;29.40;34.46
6198;BME280;3132;42.622;23.328;2022-07-25T12:37:47;92792.47;;;29.66;34.68
6198;BME280;3132;42.622;23.328;2022-07-25T12:40:13;92795.53;;;29.68;33.90
6198;BME280;3132;42.622;23.328;2022-07-25T12:42:39;92793.59;;;29.69;33.32
6198;BME280;3132;42.622;23.328;2022-07-25T12:45:05;92788.34;;;29.37;33.84
6198;BME280;3132;42.622;23.328;2022-07-25T12:47:33;92777.22;;;29.35;33.61
6198;BME280;3132;42.622;23.328;2022-07-25T12:49:58;92785.56;;;29.58;32.83
6198;BME280;3132;42.622;23.328;2022-07-25T12:52:24;92774.38;;;29.70;33.25
6198;BME280;3132;42.622;23.328;2022-07-25T12:54:49;92782.06;;;29.68;33.52
6198;BME280;3132;42.622;23.328;2022-07-25T12:57:14;92773.41;;;29.26;34.29
6198;BME280;3132;42.622;23.328;2022-07-25T12:59:41;92779.97;;;29.04;35.13
6198;BME280;3132;42.622;23.328;2022-07-25T13:02:06;92776.16;;;28.91;35.11
6198;BME280;3132;42.622;23.328;2022-07-25T13:04:32;92766.25;;;28.60;35.29
6198;BME280;3132;42.622;23.328;2022-07-25T13:06:59;92768.19;;;28.56;35.86
6198;BME280;3132;42.622;23.328;2022-07-25T13:09:25;92745.53;;;28.36;36.32
6198;BME280;3132;42.622;23.328;2022-07-25T13:11:51;92748.59;;;28.34;35.35
6198;BME280;3132;42.622;23.328;2022-07-25T13:14:17;92761.97;;;28.83;34.42
6198;BME280;3132;42.622;23.328;2022-07-25T13:16:43;92756.56;;;28.94;34.28
6198;BME280;3132;42.622;23.328;2022-07-25T13:19:09;92750.13;;;28.49;34.44